Time;durP1;ratioP1;P1;durP2;ratioP2;P2;SDS_P1;SDS_P2;PMS_P1;PMS_P2;Temp;Humidity;BMP_temperature;BMP_pressure;BME280_temperature;BME280_humidity;BME280_pressure;Samples;Min_cycle;Max_cycle;Signal;HPM_P1;HPM_P2
2023/09/25 00:00:37;;;;;;;1.98;1.45;;;15.20;97.40;;;;;;5021246;28;20024;-89
2023/09/25 00:03:04;;;;;;;3.05;1.20;;;15.20;97.40;;;;;;5004130;28;20026;-88
2023/09/25 00:05:30;;;;;;;3.08;1.38;;;15.20;97.40;;;;;;5021002;28;20031;-89
2023/09/25 00:07:59;;;;;;;3.15;1.38;;;15.20;97.40;;;;;;5020996;28;20021;-89
2023/09/25 00:10:28;;;;;;;3.75;1.30;;;15.20;97.50;;;;;;5020920;28;20056;-89
2023/09/25 00:13:13;;;;;;;2.65;1.27;;;15.20;97.40;;;;;;5020932;28;20024;-88
2023/09/25 00:15:46;;;;;;;2.55;1.40;;;15.20;97.40;;;;;;5038718;28;20025;-90
2023/09/25 00:18:14;;;;;;;1.38;1.00;;;15.20;97.40;;;;;;5021172;28;20025;-90
2023/09/25 00:20:42;;;;;;;2.22;1.45;;;15.20;97.40;;;;;;5021421;28;20052;-89
2023/09/25 00:23:08;;;;;;;1.40;1.30;;;15.20;97.40;;;;;;5021580;28;20025;-90
2023/09/25 00:25:34;;;;;;;1.73;1.30;;;15.20;97.40;;;;;;5005722;28;20029;-90
2023/09/25 00:28:05;;;;;;;2.13;1.30;;;15.20;97.40;;;;;;5022120;28;20116;-89
2023/09/25 00:30:36;;;;;;;2.22;1.20;;;15.20;97.40;;;;;;5022904;28;20022;-90
2023/09/25 00:33:05;;;;;;;2.60;1.40;;;15.20;97.40;;;;;;5023452;28;20055;-90
2023/09/25 00:35:31;;;;;;;3.30;1.20;;;15.10;97.30;;;;;;5031541;28;20090;-90
2023/09/25 00:37:56;;;;;;;2.22;1.20;;;15.10;97.30;;;;;;5042223;28;20018;-89
2023/09/25 00:40:24;;;;;;;2.47;1.20;;;15.10;97.30;;;;;;5041496;28;20055;-89
2023/09/25 00:42:54;;;;;;;1.80;1.40;;;15.10;97.30;;;;;;5056798;28;20013;-89
2023/09/25 00:45:25;;;;;;;2.20;1.23;;;15.10;97.30;;;;;;5035066;28;20017;-90
2023/09/25 00:47:54;;;;;;;1.73;1.30;;;15.10;97.30;;;;;;5023257;28;20072;-89
2023/09/25 00:50:30;;;;;;;1.95;1.27;;;15.10;97.20;;;;;;5020405;28;20013;-88
2023/09/25 00:53:01;;;;;;;2.80;1.30;;;15.10;97.50;;;;;;5037793;28;20017;-89
2023/09/25 00:55:26;;;;;;;2.13;1.30;;;15.10;97.20;;;;;;5020070;28;20051;-89
2023/09/25 00:57:55;;;;;;;2.90;1.40;;;15.00;97.20;;;;;;5020778;28;20026;-89
2023/09/25 01:00:26;;;;;;;2.58;1.50;;;15.10;97.20;;;;;;5022498;28;20022;-90
2023/09/25 01:02:57;;;;;;;1.83;1.20;;;15.10;97.20;;;;;;5020375;28;20473;-88
2023/09/25 01:05:32;;;;;;;;;;;;;;;;;;;;;
2023/09/25 01:07:59;;;;;;;3.35;1.70;;;15.00;97.20;;;;;;5039532;28;20043;-89
2023/09/25 01:10:28;;;;;;;2.15;1.15;;;15.00;97.20;;;;;;5021902;28;20056;-89
2023/09/25 01:12:57;;;;;;;1.98;1.42;;;15.00;97.20;;;;;;5038258;28;20014;-89
2023/09/25 01:15:29;;;;;;;4.35;1.35;;;15.00;97.20;;;;;;5004554;28;20029;-89
2023/09/25 01:17:56;;;;;;;3.67;1.50;;;15.00;97.20;;;;;;5038822;28;20026;-89
2023/09/25 01:20:22;;;;;;;2.75;1.48;;;15.00;97.20;;;;;;5040436;28;20048;-90
2023/09/25 01:22:54;;;;;;;2.00;1.30;;;14.90;97.20;;;;;;5024074;28;20022;-89
2023/09/25 01:25:25;;;;;;;2.05;1.30;;;14.90;97.20;;;;;;5008380;28;20041;-89
2023/09/25 01:27:51;;;;;;;2.60;1.65;;;14.90;97.20;;;;;;5024061;28;20032;-90
2023/09/25 01:30:18;;;;;;;2.63;1.45;;;14.90;97.20;;;;;;4989780;28;20025;-89
2023/09/25 01:32:56;;;;;;;2.85;1.73;;;14.90;97.20;;;;;;5038354;28;20053;-89
2023/09/25 01:35:26;;;;;;;1.88;1.10;;;14.90;97.20;;;;;;5019296;28;20044;-90
2023/09/25 01:38:04;;;;;;;2.20;1.40;;;14.90;97.20;;;;;;5037077;28;20430;-89
2023/09/25 01:40:31;;;;;;;2.70;1.50;;;14.90;97.20;;;;;;5019869;28;20028;-88
2023/09/25 01:42:57;;;;;;;2.42;1.23;;;14.90;97.20;;;;;;5018906;28;20032;-88
2023/09/25 01:45:25;;;;;;;1.50;1.15;;;14.90;97.10;;;;;;5018951;28;20013;-89
2023/09/25 01:47:57;;;;;;;1.92;1.45;;;14.90;97.10;;;;;;5019075;28;20033;-87
2023/09/25 01:50:27;;;;;;;1.73;1.20;;;14.90;97.10;;;;;;5036536;28;20013;-88
2023/09/25 01:53:00;;;;;;;2.72;1.70;;;14.90;97.10;;;;;;5019154;28;20029;-89
2023/09/25 01:55:35;;;;;;;3.90;1.52;;;14.90;97.10;;;;;;5018835;28;20116;-88
2023/09/25 01:58:14;;;;;;;;;;;;;;;;;;;;;
2023/09/25 02:00:43;;;;;;;2.17;1.38;;;14.90;97.10;;;;;;5036359;28;20022;-88
2023/09/25 02:03:09;;;;;;;2.80;1.45;;;14.90;97.10;;;;;;5036318;28;20021;-88
2023/09/25 02:05:34;;;;;;;2.80;1.60;;;14.90;97.10;;;;;;5018812;28;20079;-88
2023/09/25 02:08:00;;;;;;;2.40;1.70;;;14.90;97.10;;;;;;5019327;28;20028;-88
2023/09/25 02:10:29;;;;;;;2.58;1.40;;;14.90;97.00;;;;;;5019264;28;20052;-90
2023/09/25 02:12:57;;;;;;;2.45;1.55;;;14.90;97.00;;;;;;5020497;28;20408;-88
2023/09/25 02:15:23;;;;;;;2.22;1.40;;;14.90;97.00;;;;;;5020669;28;20018;-88
2023/09/25 02:17:51;;;;;;;1.75;1.30;;;14.90;97.00;;;;;;5041037;28;20052;-90
2023/09/25 02:20:18;;;;;;;3.38;1.30;;;14.80;97.00;;;;;;5038332;28;20078;-88
2023/09/25 02:22:51;;;;;;;2.17;1.50;;;14.80;97.00;;;;;;5057867;28;20463;-89
2023/09/25 02:25:18;;;;;;;2.05;1.42;;;14.80;97.00;;;;;;5037028;28;20059;-88
2023/09/25 02:27:44;;;;;;;4.15;1.50;;;14.80;97.00;;;;;;5032500;28;20017;-89
2023/09/25 02:30:10;;;;;;;2.50;1.20;;;14.80;97.00;;;;;;5019897;28;20028;-89
2023/09/25 02:32:37;;;;;;;4.53;1.67;;;14.80;97.00;;;;;;5014749;28;20097;-90
2023/09/25 02:35:09;;;;;;;2.58;1.42;;;14.80;97.00;;;;;;5016010;28;20029;-88
2023/09/25 02:37:37;;;;;;;2.85;1.40;;;14.80;97.00;;;;;;5014851;28;20104;-89
2023/09/25 02:40:13;;;;;;;2.92;1.52;;;14.80;97.00;;;;;;5015199;28;20030;-89
2023/09/25 02:42:39;;;;;;;2.42;1.77;;;14.80;97.00;;;;;;5014519;28;20017;-89
2023/09/25 02:45:08;;;;;;;1.63;1.50;;;14.80;97.00;;;;;;5014122;28;20064;-89
2023/09/25 02:47:34;;;;;;;1.85;1.40;;;14.80;97.00;;;;;;5014513;28;20029;-89
2023/09/25 02:50:03;;;;;;;2.05;1.35;;;14.80;97.00;;;;;;5014448;28;20067;-90
2023/09/25 02:52:29;;;;;;;1.60;1.20;;;14.80;97.00;;;;;;4997713;28;20018;-89
2023/09/25 02:54:55;;;;;;;2.25;1.52;;;14.70;97.10;;;;;;5014603;28;20022;-88
2023/09/25 02:57:23;;;;;;;1.90;1.67;;;14.80;97.10;;;;;;5014300;28;20033;-89
2023/09/25 02:59:50;;;;;;;2.45;1.75;;;14.80;97.10;;;;;;5014389;28;20026;-89
2023/09/25 03:02:18;;;;;;;3.53;1.83;;;14.80;97.10;;;;;;5015639;28;20021;-90
2023/09/25 03:04:44;;;;;;;2.00;1.38;;;14.80;97.10;;;;;;5015092;28;20446;-89
2023/09/25 03:07:10;;;;;;;1.67;1.48;;;14.80;97.00;;;;;;5014262;28;20018;-89
2023/09/25 03:09:45;;;;;;;3.58;1.50;;;14.80;97.00;;;;;;5014263;28;20018;-89
2023/09/25 03:12:14;;;;;;;2.92;1.48;;;14.80;97.10;;;;;;5015193;28;20018;-89
2023/09/25 03:14:44;;;;;;;2.55;1.50;;;14.80;97.10;;;;;;5013908;28;20114;-89
2023/09/25 03:17:10;;;;;;;3.25;1.55;;;14.80;97.10;;;;;;5014160;28;20030;-88
2023/09/25 03:19:38;;;;;;;2.22;1.40;;;14.80;97.10;;;;;;5014379;28;20026;-89
2023/09/25 03:22:06;;;;;;;1.80;1.30;;;14.80;97.10;;;;;;4998360;28;20029;-89
2023/09/25 03:24:37;;;;;;;3.58;1.95;;;14.80;97.10;;;;;;5015071;28;20022;-89
2023/09/25 03:27:08;;;;;;;2.85;1.60;;;14.80;97.10;;;;;;5014110;28;20037;-88
2023/09/25 03:29:36;;;;;;;3.42;1.80;;;14.80;97.10;;;;;;5015507;28;20022;-90
2023/09/25 03:32:04;;;;;;;2.67;1.45;;;14.80;97.10;;;;;;5014385;28;20046;-89
2023/09/25 03:34:36;;;;;;;1.85;1.50;;;14.80;97.20;;;;;;4998556;28;20037;-89
2023/09/25 03:37:02;;;;;;;2.80;1.50;;;14.80;97.20;;;;;;5014706;28;20022;-89
2023/09/25 03:39:30;;;;;;;2.60;1.40;;;14.80;97.20;;;;;;4981478;28;20018;-89
2023/09/25 03:41:58;;;;;;;4.20;1.95;;;14.80;97.20;;;;;;4998652;28;20416;-89
2023/09/25 03:44:26;;;;;;;2.72;1.65;;;14.80;97.20;;;;;;5014730;28;20026;-89
2023/09/25 03:46:51;;;;;;;3.90;1.30;;;14.80;97.20;;;;;;5015342;28;20073;-90
2023/09/25 03:49:17;;;;;;;2.05;1.42;;;14.80;97.30;;;;;;5014702;28;20026;-88
2023/09/25 03:51:43;;;;;;;5.15;1.90;;;14.80;97.30;;;;;;5015723;28;20478;-88
2023/09/25 03:54:11;;;;;;;3.33;1.30;;;14.70;97.30;;;;;;5014609;28;20112;-88
2023/09/25 03:56:39;;;;;;;1.75;1.38;;;14.80;97.30;;;;;;5016207;28;20060;-87
2023/09/25 03:59:07;;;;;;;1.83;1.25;;;14.80;97.40;;;;;;5003530;28;20029;-89
2023/09/25 04:01:35;;;;;;;3.03;1.63;;;14.80;97.40;;;;;;5030124;28;20036;-88
2023/09/25 04:04:04;;;;;;;2.30;1.77;;;14.70;97.30;;;;;;5017804;28;20026;-89
2023/09/25 04:06:29;;;;;;;3.45;1.90;;;14.70;97.30;;;;;;4994791;28;20445;-89
2023/09/25 04:08:58;;;;;;;2.20;1.63;;;14.70;97.30;;;;;;5020336;28;20490;-88
2023/09/25 04:11:29;;;;;;;2.15;1.50;;;14.70;97.40;;;;;;5016447;28;20018;-90
2023/09/25 04:13:57;;;;;;;;;;;14.70;97.40;;;;;;5016835;28;20022;-89
2023/09/25 04:16:27;;;;;;;2.50;1.60;;;14.70;97.40;;;;;;5014289;28;20012;-89
2023/09/25 04:18:56;;;;;;;2.67;1.63;;;14.70;97.40;;;;;;5013859;28;20349;-89
2023/09/25 04:21:23;;;;;;;2.22;1.35;;;14.70;97.40;;;;;;4997336;28;20030;-90
2023/09/25 04:23:48;;;;;;;2.90;1.83;;;14.70;97.40;;;;;;5013282;28;20026;-89
2023/09/25 04:26:14;;;;;;;2.75;1.50;;;14.60;97.40;;;;;;5013472;28;20088;-90
2023/09/25 04:28:42;;;;;;;2.53;1.48;;;14.60;97.50;;;;;;4997174;28;20022;-90
2023/09/25 04:31:12;;;;;;;4.50;1.98;;;14.60;97.50;;;;;;5013302;28;20025;-90
2023/09/25 04:33:41;;;;;;;3.03;1.50;;;14.60;97.50;;;;;;5013044;28;20429;-90
2023/09/25 04:36:25;;;;;;;;;;;;;;;;;;;;;
2023/09/25 04:38:54;;;;;;;3.92;1.88;;;14.60;97.50;;;;;;5017047;28;20022;-88
2023/09/25 04:41:27;;;;;;;2.25;1.40;;;14.60;97.50;;;;;;5018141;28;20020;-88
2023/09/25 04:43:55;;;;;;;2.95;1.70;;;14.60;97.50;;;;;;4999885;28;20022;-88
2023/09/25 04:46:29;;;;;;;3.20;1.45;;;14.60;97.50;;;;;;5016582;28;20025;-88
2023/09/25 04:55:47;;;;;;;2.58;1.40;;;14.60;97.50;;;;;;4948365;28;20087;-89
2023/09/25 04:58:12;;;;;;;2.78;1.25;;;14.60;97.50;;;;;;5016652;28;20450;-89
2023/09/25 05:00:40;;;;;;;2.38;1.45;;;14.60;97.50;;;;;;4999942;28;20083;-89
2023/09/25 05:03:11;;;;;;;1.55;1.25;;;14.60;97.50;;;;;;5016604;28;20022;-88
2023/09/25 05:05:37;;;;;;;1.48;1.27;;;14.60;97.40;;;;;;5000470;28;20493;-89
2023/09/25 05:08:20;;;;;;;2.85;1.50;;;14.60;97.40;;;;;;5015716;28;20025;-88
2023/09/25 05:10:49;;;;;;;1.77;1.30;;;14.60;97.50;;;;;;5017370;28;20026;-88
2023/09/25 05:13:18;;;;;;;1.80;1.50;;;14.60;97.40;;;;;;5016769;28;20476;-88
2023/09/25 05:15:56;;;;;;;3.65;1.40;;;14.60;97.40;;;;;;5016309;28;20032;-88
2023/09/25 05:18:24;;;;;;;2.25;1.45;;;14.60;97.40;;;;;;5016433;28;20108;-90
2023/09/25 05:20:50;;;;;;;2.63;1.50;;;14.60;97.40;;;;;;5016224;28;20056;-88
2023/09/25 05:23:18;;;;;;;2.20;1.40;;;14.60;97.40;;;;;;5016369;28;20030;-88
2023/09/25 05:25:50;;;;;;;1.75;1.38;;;14.60;97.40;;;;;;5017431;28;20022;-88
2023/09/25 05:28:21;;;;;;;1.48;1.20;;;14.60;97.40;;;;;;5016484;28;20040;-88
2023/09/25 05:30:55;;;;;;;3.00;1.63;;;14.60;97.40;;;;;;5017289;28;20109;-88
2023/09/25 05:33:32;;;;;;;2.17;1.38;;;14.60;97.40;;;;;;5017156;28;20042;-89
2023/09/25 05:36:02;;;;;;;1.83;1.23;;;14.60;97.40;;;;;;5020375;28;20080;-87
2023/09/25 05:38:30;;;;;;;1.90;1.30;;;14.60;97.40;;;;;;5030862;28;20010;-89
2023/09/25 05:41:01;;;;;;;2.05;1.45;;;14.60;97.40;;;;;;5038721;28;20029;-88
2023/09/25 05:43:35;;;;;;;2.92;1.65;;;14.50;97.40;;;;;;5022272;28;20095;-87
2023/09/25 05:46:01;;;;;;;1.90;1.30;;;14.50;97.40;;;;;;5037953;28;20101;-88
2023/09/25 05:48:29;;;;;;;2.42;1.20;;;14.60;97.40;;;;;;5034628;28;20026;-88
2023/09/25 05:50:55;;;;;;;1.63;1.40;;;14.60;97.40;;;;;;5012797;28;20100;-88
2023/09/25 05:53:28;;;;;;;3.55;1.40;;;14.60;97.40;;;;;;5019139;28;20018;-88
2023/09/25 05:55:55;;;;;;;2.55;1.20;;;14.60;97.40;;;;;;5016626;28;20036;-88
2023/09/25 05:58:24;;;;;;;2.70;1.50;;;14.60;97.30;;;;;;5015166;28;20052;-88
2023/09/25 06:00:53;;;;;;;2.60;1.40;;;14.60;97.30;;;;;;5015296;28;20100;-88
2023/09/25 06:03:26;;;;;;;1.83;1.33;;;14.60;97.30;;;;;;5015455;28;20112;-89
2023/09/25 06:05:52;;;;;;;1.95;1.20;;;14.70;97.40;;;;;;5015073;28;20105;-89
2023/09/25 06:08:18;;;;;;;2.75;1.55;;;14.70;97.60;;;;;;5015031;28;20049;-89
2023/09/25 06:10:47;;;;;;;2.35;1.50;;;14.70;97.40;;;;;;5014878;28;20064;-88
2023/09/25 06:13:13;;;;;;;2.83;1.55;;;14.70;97.40;;;;;;5014434;28;20613;-88
2023/09/25 06:15:42;;;;;;;3.45;1.60;;;14.70;97.40;;;;;;5014813;28;20025;-88
2023/09/25 06:18:09;;;;;;;2.00;1.30;;;14.70;97.40;;;;;;5015116;28;20018;-88
2023/09/25 06:20:43;;;;;;;2.97;1.30;;;14.70;97.40;;;;;;5016592;28;20021;-88
2023/09/25 06:23:09;;;;;;;3.80;1.33;;;14.70;97.40;;;;;;5015681;28;20446;-89
2023/09/25 06:25:35;;;;;;;3.38;1.63;;;14.70;97.40;;;;;;5015316;28;20140;-88
2023/09/25 06:28:04;;;;;;;1.80;1.20;;;14.70;97.40;;;;;;5015575;28;20517;-89
2023/09/25 06:30:32;;;;;;;2.65;1.83;;;14.70;97.50;;;;;;5015057;28;20010;-88
2023/09/25 06:32:57;;;;;;;2.75;1.60;;;14.80;97.50;;;;;;4998365;28;20037;-88
2023/09/25 06:35:23;;;;;;;2.38;1.60;;;14.80;97.50;;;;;;5016458;28;20032;-88
2023/09/25 06:37:52;;;;;;;1.90;1.30;;;14.80;97.50;;;;;;5015617;28;20462;-89
2023/09/25 06:40:21;;;;;;;3.67;1.55;;;14.80;97.50;;;;;;5014279;28;20018;-88
2023/09/25 06:42:47;;;;;;;2.92;1.20;;;14.90;97.60;;;;;;4998440;28;20128;-89
2023/09/25 06:45:13;;;;;;;2.33;1.35;;;14.90;97.60;;;;;;5015487;28;20481;-88
2023/09/25 06:47:42;;;;;;;2.45;1.60;;;14.90;97.60;;;;;;5014452;28;20022;-89
2023/09/25 06:50:10;;;;;;;3.20;1.48;;;14.90;97.60;;;;;;5014358;28;20021;-89
2023/09/25 06:52:36;;;;;;;1.80;1.30;;;15.00;97.90;;;;;;5015480;28;20454;-88
2023/09/25 06:55:05;;;;;;;2.33;1.40;;;15.00;97.60;;;;;;5014433;28;20072;-89
2023/09/25 06:57:30;;;;;;;2.13;1.63;;;15.00;97.60;;;;;;5014588;28;20030;-88
2023/09/25 06:59:57;;;;;;;2.90;1.67;;;15.10;97.60;;;;;;5014261;28;20032;-88
2023/09/25 07:02:25;;;;;;;2.80;1.52;;;15.10;97.60;;;;;;5015159;28;20020;-88
2023/09/25 07:05:04;;;;;;;;;;;;;;;;;;;;;
2023/09/25 07:07:30;;;;;;;1.90;1.50;;;15.20;97.70;;;;;;5015966;28;20480;-89
2023/09/25 07:09:56;;;;;;;3.60;2.00;;;15.20;97.70;;;;;;5014588;28;20108;-88
2023/09/25 07:12:21;;;;;;;1.73;1.40;;;15.30;97.70;;;;;;5014696;28;20076;-89
2023/09/25 07:14:56;;;;;;;2.28;1.60;;;15.40;97.70;;;;;;5014364;28;20485;-88
2023/09/25 07:17:26;;;;;;;2.50;1.50;;;15.40;97.70;;;;;;5000389;28;20026;-88
2023/09/25 07:19:57;;;;;;;2.22;1.48;;;15.50;97.60;;;;;;5017386;28;20465;-89
2023/09/25 07:22:27;;;;;;;2.97;1.30;;;15.60;97.60;;;;;;5018414;28;20086;-88
2023/09/25 07:24:54;;;;;;;3.03;1.48;;;15.60;97.60;;;;;;5032904;28;20010;-87
2023/09/25 07:27:19;;;;;;;2.40;1.55;;;15.60;97.60;;;;;;5036424;28;20052;-88
2023/09/25 07:29:47;;;;;;;3.05;1.70;;;15.70;97.50;;;;;;5034512;28;20060;-89
2023/09/25 07:32:13;;;;;;;2.85;1.73;;;15.80;97.50;;;;;;5025540;28;20046;-89
2023/09/25 07:34:40;;;;;;;2.90;1.60;;;15.80;97.50;;;;;;5020945;28;20049;-88
2023/09/25 07:37:07;;;;;;;2.25;1.50;;;15.90;97.50;;;;;;5013959;28;20033;-88
2023/09/25 07:39:34;;;;;;;2.40;1.52;;;15.90;97.40;;;;;;5013402;28;20026;-88
2023/09/25 07:42:01;;;;;;;2.15;1.70;;;16.00;97.40;;;;;;5013817;28;20033;-88
2023/09/25 07:44:33;;;;;;;3.03;1.70;;;16.00;97.40;;;;;;5013448;28;20480;-88
2023/09/25 07:47:00;;;;;;;2.75;1.60;;;16.10;97.40;;;;;;5013461;28;20030;-89
2023/09/25 07:49:27;;;;;;;1.98;1.38;;;16.10;97.40;;;;;;4997197;28;20022;-88
2023/09/25 07:51:54;;;;;;;2.95;1.30;;;16.20;97.30;;;;;;5013727;28;20014;-88
2023/09/25 07:54:23;;;;;;;2.13;1.42;;;16.20;97.30;;;;;;5013722;28;20113;-89
2023/09/25 07:56:48;;;;;;;2.38;1.38;;;16.30;97.30;;;;;;5013980;28;20021;-88
2023/09/25 07:59:14;;;;;;;2.60;1.40;;;16.40;97.20;;;;;;4997251;28;20025;-88
2023/09/25 08:01:42;;;;;;;1.83;1.45;;;16.40;97.20;;;;;;5013420;28;20058;-88
2023/09/25 08:04:10;;;;;;;2.67;1.50;;;16.50;97.10;;;;;;5013547;28;20105;-89
2023/09/25 08:06:35;;;;;;;2.13;1.25;;;16.50;97.10;;;;;;4997008;28;20022;-87
2023/09/25 08:09:09;;;;;;;1.92;1.30;;;16.60;97.00;;;;;;5013619;28;20513;-88
2023/09/25 08:11:52;;;;;;;2.72;1.65;;;16.70;97.00;;;;;;5013207;28;20091;-87
2023/09/25 08:14:19;;;;;;;2.08;1.38;;;16.70;96.90;;;;;;5017912;28;20030;-87
2023/09/25 08:16:45;;;;;;;2.35;1.48;;;16.80;96.90;;;;;;5017191;28;20472;-88
2023/09/25 08:19:10;;;;;;;2.28;1.50;;;16.80;96.80;;;;;;5016696;28;20021;-88
2023/09/25 08:21:41;;;;;;;3.00;1.40;;;16.90;96.80;;;;;;5016945;28;20037;-87
2023/09/25 08:24:15;;;;;;;3.05;1.45;;;16.90;96.70;;;;;;5017141;28;20421;-88
2023/09/25 08:26:51;;;;;;;;;;;;;;;;;;;;;
2023/09/25 08:29:25;;;;;;;1.65;1.20;;;17.00;96.70;;;;;;5018245;28;20022;-87
2023/09/25 08:31:51;;;;;;;1.85;1.30;;;17.10;96.70;;;;;;5017875;28;20446;-88
2023/09/25 08:34:26;;;;;;;2.13;1.42;;;17.20;96.70;;;;;;5020003;28;20132;-88
2023/09/25 08:36:52;;;;;;;1.75;1.38;;;17.20;96.50;;;;;;5020085;28;20034;-88
2023/09/25 08:39:20;;;;;;;2.05;1.20;;;17.30;96.40;;;;;;5019858;28;20112;-88
2023/09/25 08:41:46;;;;;;;2.35;1.38;;;17.30;96.30;;;;;;5019996;28;20039;-87
2023/09/25 08:44:15;;;;;;;2.10;1.40;;;17.40;96.30;;;;;;5020033;28;20525;-87
2023/09/25 08:46:44;;;;;;;1.95;1.20;;;17.40;96.20;;;;;;5020038;28;20009;-88
2023/09/25 08:49:19;;;;;;;1.75;1.25;;;17.40;96.20;;;;;;5019919;28;20020;-88
2023/09/25 08:51:48;;;;;;;2.28;1.60;;;17.50;96.20;;;;;;5005875;28;20026;-89
2023/09/25 08:54:13;;;;;;;2.72;1.30;;;17.50;96.10;;;;;;5037362;28;20021;-87
2023/09/25 08:56:40;;;;;;;1.40;1.20;;;17.60;96.00;;;;;;5020451;28;20070;-87
2023/09/25 08:59:10;;;;;;;2.67;1.40;;;17.60;95.90;;;;;;5019978;28;20017;-87
2023/09/25 09:01:39;;;;;;;1.30;0.98;;;17.70;95.80;;;;;;5020852;28;20033;-88
2023/09/25 09:04:11;;;;;;;2.65;1.60;;;17.70;95.70;;;;;;5019859;28;20072;-87
2023/09/25 09:06:40;;;;;;;2.33;1.33;;;17.80;95.70;;;;;;5020992;28;20116;-87
2023/09/25 09:09:08;;;;;;;1.65;1.30;;;17.80;95.70;;;;;;5021128;28;20449;-85
2023/09/25 09:11:39;;;;;;;3.10;1.52;;;17.90;95.70;;;;;;5034026;28;20129;-87
2023/09/25 09:14:07;;;;;;;2.35;1.20;;;18.00;95.70;;;;;;5042518;28;20005;-88
2023/09/25 09:16:40;;;;;;;2.55;1.15;;;18.00;95.70;;;;;;5023885;28;20044;-88
2023/09/25 09:19:09;;;;;;;2.20;1.23;;;18.10;95.70;;;;;;5033452;28;20093;-88
2023/09/25 09:21:44;;;;;;;2.80;1.40;;;18.10;95.60;;;;;;5024733;28;20021;-88
2023/09/25 09:24:21;;;;;;;2.08;1.40;;;18.20;95.50;;;;;;5037158;28;20014;-89
2023/09/25 09:26:47;;;;;;;1.70;1.33;;;18.20;95.50;;;;;;5019294;28;20017;-90
2023/09/25 09:29:23;;;;;;;3.45;1.05;;;18.30;95.50;;;;;;5019034;28;20020;-88
2023/09/25 09:32:01;;;;;;;2.17;1.45;;;18.40;95.40;;;;;;5019331;28;20023;-89
2023/09/25 09:34:27;;;;;;;1.58;1.20;;;18.40;95.30;;;;;;5035877;28;20041;-89
2023/09/25 09:37:02;;;;;;;2.35;1.27;;;18.50;95.40;;;;;;5018995;28;20025;-89
2023/09/25 09:39:37;;;;;;;2.63;1.83;;;18.50;95.40;;;;;;5018776;28;20017;-89
2023/09/25 09:42:30;;;;;;;3.08;1.65;;;18.60;95.40;;;;;;5003519;28;20021;-89
2023/09/25 09:45:08;;;;;;;;;;;;;;;;;;;;;
2023/09/25 09:47:43;;;;;;;1.88;1.40;;;18.70;95.20;;;;;;5036337;28;20035;-88
2023/09/25 09:50:13;;;;;;;1.83;1.30;;;18.70;95.10;;;;;;5019058;28;20412;-87
2023/09/25 09:52:40;;;;;;;2.65;1.25;;;18.70;95.00;;;;;;5018689;28;20052;-88
2023/09/25 09:55:12;;;;;;;2.67;1.40;;;18.80;95.00;;;;;;5018773;28;20025;-87
2023/09/25 09:57:41;;;;;;;3.35;1.63;;;18.90;95.00;;;;;;5018183;28;20018;-88
2023/09/25 10:00:08;;;;;;;2.45;1.50;;;18.90;95.00;;;;;;5018168;28;20026;-89
2023/09/25 10:02:37;;;;;;;2.80;1.30;;;18.90;94.90;;;;;;5018321;28;20067;-88
2023/09/25 10:05:08;;;;;;;3.03;1.40;;;19.00;94.90;;;;;;5018363;28;20059;-89
2023/09/25 10:08:10;;;;;;;1.92;1.27;;;19.00;94.80;;;;;;5002738;28;20021;-90
2023/09/25 10:10:45;;;;;;;4.65;1.50;;;19.10;94.70;;;;;;5036156;28;20096;-90
2023/09/25 10:13:29;;;;;;;2.88;1.40;;;19.10;94.70;;;;;;5019667;28;20017;-89
2023/09/25 10:16:01;;;;;;;2.33;1.30;;;19.10;94.60;;;;;;5036504;28;20075;-89
2023/09/25 10:18:33;;;;;;;2.85;1.83;;;19.20;94.60;;;;;;5019240;28;20469;-88
2023/09/25 10:21:10;;;;;;;3.22;2.00;;;19.20;94.60;;;;;;5036157;28;20052;-88
2023/09/25 10:23:46;;;;;;;1.95;1.50;;;19.30;94.60;;;;;;5018485;28;20052;-89
2023/09/25 10:26:28;;;;;;;2.85;1.35;;;19.30;94.50;;;;;;5018232;28;20033;-89
2023/09/25 10:29:14;;;;;;;3.95;1.50;;;19.40;94.60;;;;;;5018534;28;20108;-89
2023/09/25 10:31:51;;;;;;;2.25;1.73;;;19.40;94.50;;;;;;5018300;28;20120;-88
2023/09/25 10:34:17;;;;;;;3.80;1.80;;;19.40;94.40;;;;;;5017978;28;20037;-89
2023/09/25 10:36:46;;;;;;;2.20;1.42;;;19.40;94.40;;;;;;5017544;28;20060;-89
2023/09/25 10:39:18;;;;;;;7.15;1.80;;;19.50;94.40;;;;;;5018214;28;20021;-90
2023/09/25 10:41:47;;;;;;;2.97;1.70;;;19.50;94.40;;;;;;5035452;28;20040;-89
2023/09/25 10:44:16;;;;;;;3.10;2.03;;;19.60;94.40;;;;;;5018277;28;20017;-89
2023/09/25 10:46:43;;;;;;;2.22;1.50;;;19.60;94.30;;;;;;5018180;28;20029;-90
2023/09/25 10:49:14;;;;;;;2.90;1.70;;;19.70;94.20;;;;;;5018738;28;20089;-89
2023/09/25 10:51:43;;;;;;;2.13;1.50;;;19.70;94.20;;;;;;5018398;28;20026;-89
2023/09/25 10:54:09;;;;;;;2.38;1.83;;;19.80;94.30;;;;;;5018923;28;20087;-89
2023/09/25 10:56:35;;;;;;;3.47;1.80;;;19.80;94.30;;;;;;5020008;28;20026;-88
2023/09/25 10:59:02;;;;;;;2.75;1.73;;;19.80;94.20;;;;;;5041848;28;20022;-88
2023/09/25 11:01:30;;;;;;;2.25;1.70;;;19.80;94.20;;;;;;5034411;28;20014;-88
2023/09/25 11:04:00;;;;;;;3.33;2.05;;;19.80;94.20;;;;;;5039450;28;20018;-90
2023/09/25 11:06:27;;;;;;;2.65;2.00;;;19.90;94.20;;;;;;5037446;28;20040;-89
2023/09/25 11:09:08;;;;;;;2.88;1.80;;;19.90;94.20;;;;;;5050151;28;20020;-90
2023/09/25 11:11:38;;;;;;;2.28;1.80;;;20.00;94.20;;;;;;5028262;28;20052;-90
2023/09/25 11:14:12;;;;;;;;;;;20.00;94.20;;;;;;5002025;28;20033;-89
2023/09/25 11:16:42;;;;;;;2.03;1.70;;;20.00;94.20;;;;;;5001621;28;20349;-90
2023/09/25 11:19:17;;;;;;;3.20;1.88;;;20.10;94.20;;;;;;5034839;28;20025;-89
2023/09/25 11:22:01;;;;;;;;;;;;;;;;;;;;;
2023/09/25 11:24:30;;;;;;;2.42;1.75;;;20.10;94.10;;;;;;5019609;28;20026;-89
2023/09/25 11:26:57;;;;;;;4.32;1.90;;;20.20;93.80;;;;;;5017171;28;20025;-90
2023/09/25 11:29:32;;;;;;;3.95;1.65;;;20.20;93.80;;;;;;5016919;28;20045;-89
2023/09/25 11:31:59;;;;;;;2.00;1.40;;;20.20;93.80;;;;;;5034450;28;20457;-90
2023/09/25 11:34:28;;;;;;;2.78;1.58;;;20.20;93.90;;;;;;5013545;28;20099;-90
2023/09/25 11:36:57;;;;;;;2.33;1.50;;;20.20;94.00;;;;;;5013672;28;20461;-90
2023/09/25 11:39:24;;;;;;;2.00;1.50;;;20.30;94.00;;;;;;4997792;28;20385;-89
2023/09/25 11:42:12;;;;;;;2.92;1.90;;;20.30;94.10;;;;;;5014042;28;20025;-90
2023/09/25 11:44:38;;;;;;;2.35;1.60;;;20.40;94.00;;;;;;4999807;28;20022;-89
2023/09/25 11:47:07;;;;;;;2.53;1.83;;;20.40;93.90;;;;;;5015595;28;20018;-90
2023/09/25 11:49:35;;;;;;;2.03;1.50;;;20.40;93.90;;;;;;5017673;28;20061;-90
2023/09/25 11:52:08;;;;;;;2.25;1.48;;;20.40;94.20;;;;;;5000948;28;20465;-90
2023/09/25 11:54:34;;;;;;;2.72;1.70;;;20.50;93.90;;;;;;5017847;28;20026;-90
2023/09/25 11:57:00;;;;;;;1.77;1.40;;;20.50;93.90;;;;;;5017205;28;20381;-90
2023/09/25 11:59:33;;;;;;;3.55;1.70;;;20.60;93.90;;;;;;5017468;28;20022;-89
2023/09/25 12:02:19;;;;;;;1.92;1.45;;;20.60;93.90;;;;;;5018391;28;20045;-90
2023/09/25 12:04:47;;;;;;;2.30;1.35;;;20.60;93.90;;;;;;5017439;28;20065;-90
2023/09/25 12:07:18;;;;;;;2.65;1.30;;;20.70;93.80;;;;;;5001030;28;20093;-89
2023/09/25 12:09:48;;;;;;;2.88;1.40;;;20.70;93.80;;;;;;5018690;28;20026;-89
2023/09/25 12:12:21;;;;;;;2.63;1.83;;;20.70;93.80;;;;;;5017412;28;20026;-90
2023/09/25 12:14:47;;;;;;;3.75;1.40;;;20.70;93.90;;;;;;5001869;28;20021;-89
2023/09/25 12:17:15;;;;;;;2.35;1.30;;;20.70;93.90;;;;;;5019158;28;20080;-90
2023/09/25 12:19:50;;;;;;;2.47;1.73;;;20.80;93.80;;;;;;5018275;28;20018;-90
2023/09/25 12:22:21;;;;;;;2.75;1.52;;;20.80;93.80;;;;;;5018123;28;20518;-89
2023/09/25 12:24:56;;;;;;;2.70;1.75;;;20.80;93.80;;;;;;5018790;28;20026;-88
2023/09/25 12:27:27;;;;;;;3.40;1.83;;;20.90;93.70;;;;;;5003162;28;20048;-89
2023/09/25 12:30:13;;;;;;;2.35;1.58;;;20.80;93.70;;;;;;5019019;28;20045;-90
2023/09/25 12:32:43;;;;;;;2.63;1.60;;;20.80;93.80;;;;;;5020429;28;20046;-88
2023/09/25 12:35:18;;;;;;;1.67;1.38;;;20.80;93.90;;;;;;5021018;28;20416;-90
2023/09/25 12:37:54;;;;;;;3.13;1.42;;;20.90;93.90;;;;;;5021286;28;20124;-90
2023/09/25 12:40:29;;;;;;;;;;;;;;;;;;;;;
2023/09/25 12:42:55;;;;;;;2.95;1.67;;;20.90;94.00;;;;;;5038394;28;20027;-90
2023/09/25 12:45:24;;;;;;;3.80;1.85;;;20.90;94.00;;;;;;5020402;28;20100;-89
2023/09/25 12:47:55;;;;;;;2.08;1.35;;;20.90;93.90;;;;;;5020617;28;20025;-90
2023/09/25 12:50:24;;;;;;;3.45;1.60;;;20.90;93.90;;;;;;5006010;28;20021;-90
2023/09/25 12:52:52;;;;;;;2.42;1.58;;;20.90;93.90;;;;;;5021955;28;20033;-90
2023/09/25 12:55:27;;;;;;;2.67;1.70;;;21.00;94.00;;;;;;5035475;28;20097;-88
2023/09/25 12:57:58;;;;;;;2.78;1.73;;;21.00;93.90;;;;;;5044064;28;20009;-89
2023/09/25 13:00:27;;;;;;;2.10;1.60;;;21.00;93.80;;;;;;5007762;28;20093;-89
2023/09/25 13:02:56;;;;;;;2.35;1.52;;;21.00;93.80;;;;;;5018764;28;20093;-89
2023/09/25 13:05:26;;;;;;;3.67;2.00;;;21.10;93.80;;;;;;5026078;28;20072;-91
2023/09/25 13:07:54;;;;;;;2.00;1.52;;;21.10;93.80;;;;;;5004171;28;20043;-89
2023/09/25 13:10:22;;;;;;;2.38;1.50;;;21.10;93.80;;;;;;5019821;28;20021;-88
2023/09/25 13:12:48;;;;;;;2.95;1.75;;;21.10;93.60;;;;;;5019963;28;20101;-88
2023/09/25 13:15:19;;;;;;;2.72;1.65;;;21.20;93.60;;;;;;5019631;28;20084;-88